Time;durP1;ratioP1;P1;durP2;ratioP2;P2;SDS_P1;SDS_P2;PMS_P1;PMS_P2;Temp;Humidity;BMP_temperature;BMP_pressure;BME280_temperature;BME280_humidity;BME280_pressure;Samples;Min_cycle;Max_cycle;Signal;HPM_P1;HPM_P2
2023/05/03 00:01:20;;;;;;;14.57;7.83;;;;;;;;;;5078811;28;20020;-80
2023/05/03 00:03:47;;;;;;;15.57;8.50;;;;;;;;;;5079693;28;20020;-80
2023/05/03 00:06:16;;;;;;;19.97;8.17;;;;;;;;;;5081128;28;20020;-80
2023/05/03 00:08:42;;;;;;;17.23;9.00;;;;;;;;;;5078632;28;20080;-80
2023/05/03 00:11:11;;;;;;;14.83;8.93;;;;;;;;;;5078854;28;20028;-80
2023/05/03 00:13:43;;;;;;;19.87;9.77;;;;;;;;;;5079485;28;20024;-80
2023/05/03 00:16:09;;;;;;;17.43;9.53;;;;;;;;;;5079519;28;20039;-80
2023/05/03 00:18:35;;;;;;;15.17;8.93;;;;;;;;;;5079883;28;20055;-80
2023/05/03 00:21:04;;;;;;;19.23;8.90;;;;;;;;;;5078333;28;20013;-80
2023/05/03 00:23:30;;;;;;;18.00;7.53;;;;;;;;;;5078847;28;20029;-80
2023/05/03 00:25:59;;;;;;;15.30;9.20;;;;;;;;;;5078357;28;20035;-80
2023/05/03 00:28:27;;;;;;;16.20;8.60;;;;;;;;;;5077038;28;20036;-80
2023/05/03 00:30:57;;;;;;;17.33;8.83;;;;;;;;;;5077539;28;20037;-80
2023/05/03 00:33:23;;;;;;;20.97;9.17;;;;;;;;;;5077470;28;20043;-80
2023/05/03 00:35:49;;;;;;;15.47;7.97;;;;;;;;;;5077140;28;20047;-80
2023/05/03 00:38:17;;;;;;;21.03;9.17;;;;;;;;;;5081128;28;20113;-80
2023/05/03 00:40:53;;;;;;;24.13;9.97;;;;;;;;;;5076350;28;21485;-79
2023/05/03 00:43:22;;;;;;;19.27;9.63;;;;;;;;;;5077635;28;20131;-79
2023/05/03 00:45:49;;;;;;;18.67;8.97;;;;;;;;;;5095677;28;20023;-80
2023/05/03 00:48:17;;;;;;;19.30;8.57;;;;;;;;;;5077254;28;20044;-80
2023/05/03 00:50:53;;;;;;;15.23;8.80;;;;;;;;;;5075883;28;20017;-80
2023/05/03 00:53:21;;;;;;;15.37;9.83;;;;;;;;;;5075979;28;20024;-80
2023/05/03 00:55:48;;;;;;;11.63;8.27;;;;;;;;;;5077280;28;20009;-79
2023/05/03 00:58:14;;;;;;;17.30;9.30;;;;;;;;;;5077758;28;20107;-79
2023/05/03 01:00:42;;;;;;;16.80;9.43;;;;;;;;;;5079654;28;20029;-80
2023/05/03 01:03:08;;;;;;;14.73;8.30;;;;;;;;;;5078227;28;20032;-80
2023/05/03 01:05:40;;;;;;;14.37;8.80;;;;;;;;;;5079839;28;20024;-80
2023/05/03 01:08:12;;;;;;;25.40;10.03;;;;;;;;;;5100079;28;20044;-80
2023/05/03 01:10:50;;;;;;;19.70;9.18;;;;;;;;;;5080686;28;20013;-80
2023/05/03 01:13:35;;;;;;;23.27;9.07;;;;;;;;;;5081013;28;20137;-80
2023/05/03 01:16:01;;;;;;;23.50;9.20;;;;;;;;;;5081902;28;20050;-80
2023/05/03 01:18:33;;;;;;;20.73;9.90;;;;;;;;;;5081230;28;20048;-79
2023/05/03 01:21:00;;;;;;;16.88;8.40;;;;;;;;;;5081765;28;20021;-79
2023/05/03 01:23:33;;;;;;;18.40;8.70;;;;;;;;;;5080634;28;20096;-80
2023/05/03 01:25:59;;;;;;;;;;;;;;;;;;5081391;28;20016;-79
2023/05/03 01:28:25;;;;;;;15.73;7.90;;;;;;;;;;5079907;28;19999;-80
2023/05/03 01:30:54;;;;;;;22.33;9.80;;;;;;;;;;5080918;28;20028;-79
2023/05/03 01:33:25;;;;;;;19.83;10.00;;;;;;;;;;5080490;28;20016;-80
2023/05/03 01:36:10;;;;;;;18.50;9.90;;;;;;;;;;5080245;28;20020;-80
2023/05/03 01:38:37;;;;;;;21.73;8.77;;;;;;;;;;5080381;28;20040;-80
2023/05/03 01:41:11;;;;;;;23.13;9.80;;;;;;;;;;5080263;28;20392;-79
2023/05/03 01:43:37;;;;;;;16.03;9.03;;;;;;;;;;5080656;28;20032;-80
2023/05/03 01:46:04;;;;;;;18.87;10.27;;;;;;;;;;5080761;28;20039;-80
2023/05/03 01:48:32;;;;;;;22.47;10.60;;;;;;;;;;5097511;28;20020;-80
2023/05/03 01:50:58;;;;;;;15.00;9.27;;;;;;;;;;5080355;28;20020;-80
2023/05/03 01:53:26;;;;;;;18.33;9.70;;;;;;;;;;5080604;28;20030;-80
2023/05/03 01:55:55;;;;;;;18.37;9.77;;;;;;;;;;5080059;28;20038;-79
2023/05/03 01:58:21;;;;;;;18.23;10.20;;;;;;;;;;5080467;28;20024;-79
2023/05/03 02:00:55;;;;;;;26.40;10.53;;;;;;;;;;5079352;28;20012;-80
2023/05/03 02:03:21;;;;;;;17.70;10.50;;;;;;;;;;5096768;28;20023;-80
2023/05/03 02:05:47;;;;;;;18.63;11.13;;;;;;;;;;5078024;28;20028;-79
2023/05/03 02:08:14;;;;;;;21.00;10.67;;;;;;;;;;5097286;28;20016;-80
2023/05/03 02:10:49;;;;;;;17.67;10.70;;;;;;;;;;5079278;28;20024;-79
2023/05/03 02:13:17;;;;;;;22.33;10.83;;;;;;;;;;5079179;28;20058;-80
2023/05/03 02:15:43;;;;;;;18.50;10.00;;;;;;;;;;5076726;28;20020;-80
2023/05/03 02:18:15;;;;;;;21.67;10.00;;;;;;;;;;5079684;28;20048;-80
2023/05/03 02:20:44;;;;;;;16.80;10.13;;;;;;;;;;5080498;28;20165;-80
2023/05/03 02:23:10;;;;;;;23.40;10.00;;;;;;;;;;5078916;28;20030;-80
2023/05/03 02:25:39;;;;;;;23.90;9.70;;;;;;;;;;5079252;28;20314;-80
2023/05/03 02:28:05;;;;;;;13.37;8.47;;;;;;;;;;5079176;28;20047;-80
2023/05/03 02:30:34;;;;;;;16.83;9.77;;;;;;;;;;5078445;28;20412;-80
2023/05/03 02:33:03;;;;;;;19.00;10.17;;;;;;;;;;5079355;28;20012;-80
2023/05/03 02:35:32;;;;;;;20.40;9.13;;;;;;;;;;5079776;28;20296;-80
2023/05/03 02:37:58;;;;;;;17.87;9.27;;;;;;;;;;5079026;28;20346;-81
2023/05/03 02:40:24;;;;;;;18.87;9.53;;;;;;;;;;5078519;28;20028;-80
2023/05/03 02:42:51;;;;;;;18.03;9.63;;;;;;;;;;5079424;28;20036;-81
2023/05/03 02:45:20;;;;;;;17.17;9.57;;;;;;;;;;5096208;28;20082;-80
2023/05/03 02:47:46;;;;;;;21.10;11.20;;;;;;;;;;5078588;28;20085;-81
2023/05/03 02:50:12;;;;;;;19.43;10.93;;;;;;;;;;5078737;28;20295;-79
2023/05/03 02:52:38;;;;;;;20.70;11.03;;;;;;;;;;5077855;28;20358;-80
2023/05/03 02:55:05;;;;;;;19.10;11.13;;;;;;;;;;5079398;28;20289;-80
2023/05/03 02:57:36;;;;;;;22.53;10.67;;;;;;;;;;5078317;28;20271;-81
2023/05/03 03:00:04;;;;;;;23.10;10.83;;;;;;;;;;5077452;28;20314;-79
2023/05/03 03:02:34;;;;;;;20.60;10.83;;;;;;;;;;5078002;28;20308;-80
2023/05/03 03:05:03;;;;;;;23.27;11.00;;;;;;;;;;5078857;28;20275;-80
2023/05/03 03:07:32;;;;;;;17.53;10.73;;;;;;;;;;5077973;28;20290;-80
2023/05/03 03:09:58;;;;;;;22.83;10.57;;;;;;;;;;5078927;28;20269;-80
2023/05/03 03:12:27;;;;;;;22.40;12.40;;;;;;;;;;5078304;28;20313;-80
2023/05/03 03:14:53;;;;;;;25.27;11.70;;;;;;;;;;5077389;28;20029;-80
2023/05/03 03:17:20;;;;;;;16.87;10.03;;;;;;;;;;5078502;28;20275;-81
2023/05/03 03:19:48;;;;;;;29.80;10.27;;;;;;;;;;5078193;28;20325;-80
2023/05/03 03:22:17;;;;;;;20.03;9.90;;;;;;;;;;5078520;28;20016;-80
2023/05/03 03:24:45;;;;;;;22.80;11.33;;;;;;;;;;5078317;28;20275;-79
2023/05/03 03:27:14;;;;;;;21.33;11.73;;;;;;;;;;5077461;28;20275;-80
2023/05/03 03:29:42;;;;;;;23.23;13.00;;;;;;;;;;5077317;28;20274;-80
2023/05/03 03:32:13;;;;;;;22.27;11.40;;;;;;;;;;5076799;28;20279;-80
2023/05/03 03:34:42;;;;;;;19.13;9.70;;;;;;;;;;5078618;28;20273;-80
2023/05/03 03:37:08;;;;;;;21.07;10.83;;;;;;;;;;5077757;28;20279;-80
2023/05/03 03:39:34;;;;;;;21.07;11.43;;;;;;;;;;5077804;28;20099;-79
2023/05/03 03:42:01;;;;;;;24.13;12.37;;;;;;;;;;5079870;28;20293;-79
2023/05/03 03:44:30;;;;;;;18.50;10.77;;;;;;;;;;5077189;28;20334;-80
2023/05/03 03:46:56;;;;;;;20.63;10.70;;;;;;;;;;5077126;28;20279;-80
2023/05/03 03:49:22;;;;;;;25.63;11.00;;;;;;;;;;5076792;28;20297;-80
2023/05/03 03:51:50;;;;;;;20.30;11.37;;;;;;;;;;5095467;28;20283;-80
2023/05/03 03:54:16;;;;;;;27.90;13.07;;;;;;;;;;5078010;28;20282;-80
2023/05/03 03:56:42;;;;;;;24.37;12.10;;;;;;;;;;5077016;28;20329;-80
2023/05/03 03:59:08;;;;;;;22.47;11.10;;;;;;;;;;5076831;28;20349;-79
2023/05/03 04:01:34;;;;;;;17.27;10.50;;;;;;;;;;5077267;28;20274;-80
2023/05/03 04:04:03;;;;;;;18.90;11.07;;;;;;;;;;5076036;28;20328;-80
2023/05/03 04:06:32;;;;;;;24.87;12.07;;;;;;;;;;5077602;28;20271;-80
2023/05/03 04:08:58;;;;;;;18.17;11.60;;;;;;;;;;5077676;28;20263;-81
2023/05/03 04:11:24;;;;;;;22.53;12.23;;;;;;;;;;5078276;28;20291;-79
2023/05/03 04:13:50;;;;;;;23.50;12.07;;;;;;;;;;5077316;28;20263;-81
2023/05/03 04:16:16;;;;;;;22.57;11.70;;;;;;;;;;5077137;28;20273;-81
2023/05/03 04:18:42;;;;;;;21.17;11.23;;;;;;;;;;5077377;28;20318;-81
2023/05/03 04:21:11;;;;;;;22.90;10.93;;;;;;;;;;5077088;28;20262;-80
2023/05/03 04:23:39;;;;;;;25.10;11.77;;;;;;;;;;5076167;28;20297;-80
2023/05/03 04:26:13;;;;;;;24.40;10.53;;;;;;;;;;5077913;28;20274;-79
2023/05/03 04:28:39;;;;;;;18.57;10.87;;;;;;;;;;5077463;28;20274;-79
2023/05/03 04:31:09;;;;;;;23.70;11.83;;;;;;;;;;5077820;28;20270;-80
2023/05/03 04:33:44;;;;;;;20.60;11.17;;;;;;;;;;5076754;28;20270;-80
2023/05/03 04:36:14;;;;;;;23.17;11.23;;;;;;;;;;5078526;28;20266;-80
2023/05/03 04:38:41;;;;;;;24.07;11.50;;;;;;;;;;5078440;28;20298;-80
2023/05/03 04:41:15;;;;;;;25.30;13.80;;;;;;;;;;5077594;28;20271;-78
2023/05/03 04:43:43;;;;;;;22.53;12.27;;;;;;;;;;5077646;28;20310;-80
2023/05/03 04:46:09;;;;;;;24.80;11.73;;;;;;;;;;5076763;28;20270;-80
2023/05/03 04:48:37;;;;;;;22.83;11.73;;;;;;;;;;5077653;28;20276;-79
2023/05/03 04:51:04;;;;;;;28.87;13.43;;;;;;;;;;5077246;28;20314;-80
2023/05/03 04:53:30;;;;;;;22.07;12.40;;;;;;;;;;5062456;28;20366;-80
2023/05/03 04:55:56;;;;;;;29.07;11.67;;;;;;;;;;5077356;28;20851;-79
2023/05/03 04:58:28;;;;;;;24.87;11.67;;;;;;;;;;5077543;28;20337;-78
2023/05/03 05:00:54;;;;;;;20.08;11.38;;;;;;;;;;5075784;28;20274;-79
2023/05/03 05:03:20;;;;;;;19.67;11.10;;;;;;;;;;5095295;28;21021;-80
2023/05/03 05:05:46;;;;;;;24.67;13.50;;;;;;;;;;5076655;28;20286;-79
2023/05/03 05:08:12;;;;;;;23.47;13.40;;;;;;;;;;5075267;28;20358;-81
2023/05/03 05:10:44;;;;;;;27.80;13.60;;;;;;;;;;5095193;28;20289;-81
2023/05/03 05:13:10;;;;;;;25.53;13.10;;;;;;;;;;5076560;28;20350;-80
2023/05/03 05:15:39;;;;;;;29.67;13.20;;;;;;;;;;5076151;28;20278;-80
2023/05/03 05:18:10;;;;;;;22.07;12.97;;;;;;;;;;5077273;28;20362;-80
2023/05/03 05:20:36;;;;;;;24.43;13.53;;;;;;;;;;5074900;28;20292;-80
2023/05/03 05:23:09;;;;;;;25.20;12.83;;;;;;;;;;5076735;28;20092;-80
2023/05/03 05:25:35;;;;;;;25.33;12.60;;;;;;;;;;5076031;28;20020;-79
2023/05/03 05:28:01;;;;;;;24.33;12.80;;;;;;;;;;5077010;28;20031;-79
2023/05/03 05:30:27;;;;;;;26.33;12.57;;;;;;;;;;5076943;28;20025;-79
2023/05/03 05:32:53;;;;;;;22.87;13.40;;;;;;;;;;5076532;28;20275;-80
2023/05/03 05:35:19;;;;;;;30.53;13.43;;;;;;;;;;5076931;28;20050;-79
2023/05/03 05:37:45;;;;;;;28.83;12.70;;;;;;;;;;5075949;28;20039;-78
2023/05/03 05:40:12;;;;;;;26.03;12.30;;;;;;;;;;5077710;28;20028;-79
2023/05/03 05:42:40;;;;;;;29.43;13.13;;;;;;;;;;5076625;28;20029;-81
2023/05/03 05:45:07;;;;;;;26.80;12.10;;;;;;;;;;5077237;28;20112;-79
2023/05/03 05:47:33;;;;;;;24.03;12.97;;;;;;;;;;5077089;28;20036;-79
2023/05/03 05:50:01;;;;;;;26.20;12.10;;;;;;;;;;5078979;28;20020;-79
2023/05/03 05:52:27;;;;;;;21.67;11.70;;;;;;;;;;5204874;22;20040;-80
2023/05/03 05:54:53;;;;;;;29.33;12.67;;;;;;;;;;5097442;28;20017;-79
2023/05/03 05:57:19;;;;;;;21.60;12.43;;;;;;;;;;5093620;28;20033;-79
2023/05/03 05:59:45;;;;;;;27.13;12.83;;;;;;;;;;5091121;28;20096;-79
2023/05/03 06:02:15;;;;;;;21.20;11.37;;;;;;;;;;5455932;22;20048;-81
2023/05/03 06:04:41;;;;;;;26.57;11.70;;;;;;;;;;5165402;22;20019;-78
2023/05/03 06:07:07;;;;;;;19.47;11.87;;;;;;;;;;5097984;28;20025;-79
2023/05/03 06:12:09;;;;;;;18.33;10.27;;;;;;;;;;5088797;28;20020;-80
2023/05/03 06:14:35;;;;;;;18.93;11.23;;;;;;;;;;5115417;22;20036;-80
2023/05/03 06:17:02;;;;;;;17.20;10.73;;;;;;;;;;5096618;28;20025;-79
2023/05/03 06:19:28;;;;;;;17.67;9.63;;;;;;;;;;5096882;28;20044;-80
2023/05/03 06:21:57;;;;;;;14.53;9.40;;;;;;;;;;5095814;28;20529;-80
2023/05/03 06:24:23;;;;;;;26.63;10.37;;;;;;;;;;5098200;28;20037;-80
2023/05/03 06:26:52;;;;;;;19.43;10.60;;;;;;;;;;5112311;27;20005;-79
2023/05/03 06:29:20;;;;;;;19.17;10.13;;;;;;;;;;5101698;28;20105;-80
2023/05/03 06:31:49;;;;;;;19.60;10.57;;;;;;;;;;5096658;28;20039;-80
2023/05/03 06:34:20;;;;;;;15.90;9.23;;;;;;;;;;5098665;28;20056;-80
2023/05/03 06:36:46;;;;;;;14.87;8.30;;;;;;;;;;5098941;28;20099;-80
2023/05/03 06:39:12;;;;;;;17.33;8.53;;;;;;;;;;5098988;28;20074;-79
2023/05/03 06:41:41;;;;;;;17.53;9.30;;;;;;;;;;5098617;28;20032;-80
2023/05/03 06:44:09;;;;;;;19.57;8.53;;;;;;;;;;5095748;28;20029;-79
2023/05/03 06:46:35;;;;;;;13.30;8.37;;;;;;;;;;5097252;28;20093;-80
2023/05/03 06:49:02;;;;;;;13.43;7.63;;;;;;;;;;5096626;28;20024;-80
2023/05/03 06:51:31;;;;;;;12.00;7.73;;;;;;;;;;5097432;28;20020;-80
2023/05/03 06:54:08;;;;;;;15.73;8.97;;;;;;;;;;5097527;28;20008;-79
2023/05/03 06:56:34;;;;;;;16.03;8.53;;;;;;;;;;5096273;28;20059;-81
2023/05/03 06:59:00;;;;;;;16.70;7.60;;;;;;;;;;5097083;28;20028;-81
2023/05/03 07:01:27;;;;;;;14.40;7.50;;;;;;;;;;5095638;28;20062;-80
2023/05/03 07:03:55;;;;;;;14.80;8.30;;;;;;;;;;5097331;28;20035;-80
2023/05/03 07:06:24;;;;;;;10.93;6.27;;;;;;;;;;5096075;28;20023;-81
2023/05/03 07:08:51;;;;;;;13.63;6.77;;;;;;;;;;5095814;28;20092;-80
2023/05/03 07:11:23;;;;;;;12.37;6.63;;;;;;;;;;5095846;28;20029;-81
2023/05/03 07:13:52;;;;;;;12.05;6.90;;;;;;;;;;5097184;28;20024;-81
2023/05/03 07:16:29;;;;;;;10.27;6.57;;;;;;;;;;5095365;28;20096;-80
2023/05/03 07:18:55;;;;;;;12.97;6.80;;;;;;;;;;5095892;28;20032;-80
2023/05/03 07:21:21;;;;;;;18.43;7.67;;;;;;;;;;5095692;28;20016;-80
2023/05/03 07:23:47;;;;;;;18.93;6.70;;;;;;;;;;5096393;28;20028;-81
2023/05/03 07:26:18;;;;;;;9.83;5.30;;;;;;;;;;5095809;28;20020;-81
2023/05/03 07:28:44;;;;;;;9.10;5.60;;;;;;;;;;5096553;28;20036;-81
2023/05/03 07:31:11;;;;;;;15.87;7.63;;;;;;;;;;5095806;28;20072;-80
2023/05/03 07:33:37;;;;;;;11.30;6.80;;;;;;;;;;5095834;28;20031;-81
2023/05/03 07:36:04;;;;;;;11.70;5.00;;;;;;;;;;5097910;28;20020;-81
2023/05/03 07:38:32;;;;;;;9.70;5.00;;;;;;;;;;5096066;28;20036;-81
2023/05/03 07:41:04;;;;;;;10.67;6.03;;;;;;;;;;5094465;28;20012;-80
2023/05/03 07:43:30;;;;;;;13.05;6.10;;;;;;;;;;5095553;28;20127;-80
2023/05/03 07:46:02;;;;;;;12.53;6.40;;;;;;;;;;5096132;28;20033;-80
2023/05/03 07:48:28;;;;;;;11.87;6.27;;;;;;;;;;5094727;28;20044;-81
2023/05/03 07:50:54;;;;;;;9.73;6.33;;;;;;;;;;5095299;28;20028;-81
2023/05/03 07:53:20;;;;;;;11.43;5.47;;;;;;;;;;5094996;28;20017;-81
2023/05/03 07:55:46;;;;;;;12.73;5.63;;;;;;;;;;5093091;28;20102;-81
2023/05/03 07:58:15;;;;;;;8.37;5.13;;;;;;;;;;5096178;28;20047;-81
2023/05/03 08:00:41;;;;;;;10.93;6.47;;;;;;;;;;5094999;28;20020;-79
2023/05/03 08:03:13;;;;;;;18.27;6.57;;;;;;;;;;5095804;28;20013;-80
2023/05/03 08:05:39;;;;;;;10.37;7.00;;;;;;;;;;5095247;28;20056;-80
2023/05/03 08:08:05;;;;;;;12.23;6.17;;;;;;;;;;5097242;28;20024;-80
2023/05/03 08:10:36;;;;;;;9.33;5.47;;;;;;;;;;5096150;28;20032;-79
2023/05/03 08:13:02;;;;;;;14.77;5.47;;;;;;;;;;5096409;28;20036;-79
2023/05/03 08:15:30;;;;;;;8.33;5.70;;;;;;;;;;5095518;28;20155;-80
2023/05/03 08:17:56;;;;;;;12.23;5.07;;;;;;;;;;5094612;28;20029;-80
2023/05/03 08:20:22;;;;;;;8.20;5.07;;;;;;;;;;5096136;28;20021;-81
2023/05/03 08:22:49;;;;;;;13.23;5.13;;;;;;;;;;5098013;28;20018;-80
2023/05/03 08:25:16;;;;;;;10.27;5.23;;;;;;;;;;5095485;28;20061;-79
2023/05/03 08:27:42;;;;;;;9.23;4.87;;;;;;;;;;5097602;28;20013;-80
2023/05/03 08:30:09;;;;;;;9.57;5.07;;;;;;;;;;5095973;28;20048;-80
2023/05/03 08:32:35;;;;;;;10.47;5.20;;;;;;;;;;5096863;28;20042;-80
2023/05/03 08:35:05;;;;;;;8.90;5.13;;;;;;;;;;5096230;28;20697;-80
2023/05/03 08:37:37;;;;;;;9.77;4.43;;;;;;;;;;5097033;28;20027;-80
2023/05/03 08:40:04;;;;;;;11.33;5.53;;;;;;;;;;5096330;28;20032;-81
2023/05/03 08:42:32;;;;;;;11.53;5.33;;;;;;;;;;5097087;28;20020;-80
2023/05/03 08:44:58;;;;;;;9.23;5.07;;;;;;;;;;5096838;28;20012;-80
2023/05/03 08:47:25;;;;;;;9.63;4.67;;;;;;;;;;5094903;28;20039;-79
2023/05/03 08:49:52;;;;;;;13.23;5.47;;;;;;;;;;5096675;28;20051;-80
2023/05/03 08:52:20;;;;;;;13.97;5.20;;;;;;;;;;5096149;28;20080;-79
2023/05/03 08:54:49;;;;;;;10.43;5.97;;;;;;;;;;5095454;28;20031;-79
2023/05/03 08:57:16;;;;;;;7.20;4.70;;;;;;;;;;5096620;28;20023;-80
2023/05/03 09:00:00;;;;;;;8.90;4.73;;;;;;;;;;5095636;28;20217;-79
2023/05/03 09:02:26;;;;;;;9.47;4.83;;;;;;;;;;5094668;28;20037;-80
2023/05/03 09:04:55;;;;;;;11.43;6.00;;;;;;;;;;5095775;28;20032;-81
2023/05/03 09:07:21;;;;;;;17.13;8.70;;;;;;;;;;5096014;28;20056;-80
2023/05/03 09:09:47;;;;;;;11.70;4.70;;;;;;;;;;5093824;28;20044;-79
2023/05/03 09:12:34;;;;;;;11.10;4.77;;;;;;;;;;5094827;28;20054;-80
2023/05/03 09:15:21;;;;;;;7.80;4.20;;;;;;;;;;5096093;28;20012;-80
2023/05/03 09:17:49;;;;;;;10.67;4.80;;;;;;;;;;5095393;28;20066;-80
2023/05/03 09:20:15;;;;;;;7.00;4.40;;;;;;;;;;5096160;28;20104;-80
2023/05/03 09:22:51;;;;;;;9.10;4.40;;;;;;;;;;5094359;28;20250;-80
2023/05/03 09:25:17;;;;;;;9.70;4.43;;;;;;;;;;5097241;28;20032;-80
2023/05/03 09:27:43;;;;;;;9.37;4.60;;;;;;;;;;5099291;28;20013;-80
2023/05/03 09:30:19;;;;;;;8.80;4.90;;;;;;;;;;5097904;28;20017;-80
2023/05/03 09:32:48;;;;;;;10.70;4.73;;;;;;;;;;5099128;28;20016;-80
2023/05/03 09:35:14;;;;;;;7.27;3.90;;;;;;;;;;5097189;28;20028;-80
2023/05/03 09:37:40;;;;;;;14.00;4.23;;;;;;;;;;5098972;28;20012;-80
2023/05/03 09:40:11;;;;;;;13.47;4.07;;;;;;;;;;5099209;28;20107;-80
2023/05/03 09:42:37;;;;;;;9.67;4.23;;;;;;;;;;5097009;28;20035;-80
2023/05/03 09:45:04;;;;;;;10.07;3.87;;;;;;;;;;5098390;28;20435;-78
2023/05/03 09:47:32;;;;;;;8.60;4.13;;;;;;;;;;5096781;28;20322;-80
2023/05/03 09:49:59;;;;;;;7.13;3.67;;;;;;;;;;5097299;28;20047;-80
2023/05/03 09:52:28;;;;;;;6.97;3.83;;;;;;;;;;5097408;28;20055;-80
2023/05/03 09:54:54;;;;;;;8.97;3.70;;;;;;;;;;5098034;28;20023;-80
2023/05/03 09:57:20;;;;;;;11.60;3.87;;;;;;;;;;5100917;28;20058;-80
2023/05/03 09:59:49;;;;;;;10.27;3.77;;;;;;;;;;5101685;28;20087;-79
2023/05/03 10:02:16;;;;;;;7.67;4.07;;;;;;;;;;5100052;28;20021;-80
2023/05/03 10:04:52;;;;;;;6.50;4.23;;;;;;;;;;5099425;28;20025;-80
2023/05/03 10:07:19;;;;;;;9.23;4.10;;;;;;;;;;5096829;28;20050;-80
2023/05/03 10:09:48;;;;;;;8.67;3.90;;;;;;;;;;5101035;28;20035;-80
2023/05/03 10:12:17;;;;;;;7.97;4.57;;;;;;;;;;5099665;28;20021;-80
2023/05/03 10:14:44;;;;;;;7.10;4.43;;;;;;;;;;5098664;28;20076;-80
2023/05/03 10:17:21;;;;;;;8.23;3.83;;;;;;;;;;5097836;28;20131;-79
2023/05/03 10:19:53;;;;;;;5.80;3.77;;;;;;;;;;5096598;28;20056;-80
2023/05/03 10:22:19;;;;;;;7.45;4.03;;;;;;;;;;5098807;28;20025;-80
2023/05/03 10:25:09;;;;;;;12.17;4.43;;;;;;;;;;5098947;28;20031;-79
2023/05/03 10:27:42;;;;;;;11.47;4.20;;;;;;;;;;5110430;27;20044;-79
2023/05/03 10:30:09;;;;;;;9.27;3.73;;;;;;;;;;5098091;28;20024;-80
2023/05/03 10:32:38;;;;;;;5.60;3.87;;;;;;;;;;5098017;28;20027;-80
2023/05/03 10:35:08;;;;;;;8.90;4.10;;;;;;;;;;5096874;28;20032;-80
2023/05/03 10:37:37;;;;;;;6.00;3.67;;;;;;;;;;5098143;28;20017;-80
2023/05/03 10:40:07;;;;;;;7.40;4.10;;;;;;;;;;5098921;28;20295;-80
2023/05/03 10:42:34;;;;;;;8.10;4.00;;;;;;;;;;5099394;28;20020;-80
2023/05/03 10:45:03;;;;;;;5.27;3.70;;;;;;;;;;5097807;28;20054;-80
2023/05/03 10:47:29;;;;;;;8.23;3.13;;;;;;;;;;5097498;28;20024;-80
2023/05/03 10:50:25;;;;;;;10.87;4.10;;;;;;;;;;5097523;28;20025;-80
2023/05/03 10:52:51;;;;;;;8.03;3.67;;;;;;;;;;5092227;28;20074;-79
2023/05/03 10:55:24;;;;;;;6.73;2.97;;;;;;;;;;5099415;28;20023;-80
2023/05/03 10:57:52;;;;;;;6.83;3.30;;;;;;;;;;5096402;28;20039;-79
2023/05/03 11:00:25;;;;;;;10.33;2.93;;;;;;;;;;5098635;28;20028;-80
2023/05/03 11:03:17;;;;;;;5.88;3.30;;;;;;;;;;5098971;28;20058;-79
2023/05/03 11:05:43;;;;;;;12.60;3.05;;;;;;;;;;5082483;28;20031;-79
2023/05/03 11:08:17;;;;;;;3.83;2.70;;;;;;;;;;5099095;28;20025;-79
2023/05/03 11:10:46;;;;;;;6.20;2.97;;;;;;;;;;5096623;28;20012;-80
2023/05/03 11:13:15;;;;;;;8.03;2.83;;;;;;;;;;5100170;28;20036;-80
2023/05/03 11:15:41;;;;;;;5.47;2.80;;;;;;;;;;5097415;28;20020;-80
2023/05/03 11:18:08;;;;;;;5.50;2.53;;;;;;;;;;5097185;28;20025;-80
2023/05/03 11:20:35;;;;;;;8.00;2.77;;;;;;;;;;5097964;28;20044;-80
2023/05/03 11:23:02;;;;;;;5.17;2.47;;;;;;;;;;5097884;28;20127;-80
2023/05/03 11:25:32;;;;;;;8.57;3.60;;;;;;;;;;5097790;28;20016;-79
2023/05/03 11:28:02;;;;;;;5.30;3.00;;;;;;;;;;5098477;28;20013;-80
2023/05/03 11:30:31;;;;;;;5.90;2.70;;;;;;;;;;5095986;28;20028;-79
2023/05/03 11:32:58;;;;;;;11.07;3.70;;;;;;;;;;5096483;28;20028;-80
2023/05/03 11:35:25;;;;;;;7.50;2.93;;;;;;;;;;5097910;28;20024;-80
2023/05/03 11:37:55;;;;;;;7.30;2.83;;;;;;;;;;5096408;28;20028;-80
2023/05/03 11:40:23;;;;;;;5.27;2.37;;;;;;;;;;5094945;28;20167;-80
2023/05/03 11:42:51;;;;;;;5.37;2.47;;;;;;;;;;5097526;28;20044;-80
2023/05/03 11:45:17;;;;;;;5.83;2.10;;;;;;;;;;5097593;28;20041;-80
2023/05/03 11:47:43;;;;;;;4.07;2.40;;;;;;;;;;5099138;28;20066;-82
2023/05/03 11:50:09;;;;;;;5.47;2.70;;;;;;;;;;5097134;28;20048;-80
2023/05/03 11:52:36;;;;;;;6.20;3.07;;;;;;;;;;5099031;28;20023;-78
2023/05/03 11:55:03;;;;;;;5.40;2.50;;;;;;;;;;5096145;28;20024;-78
2023/05/03 11:57:29;;;;;;;5.40;3.20;;;;;;;;;;5098127;28;20025;-79
2023/05/03 12:00:08;;;;;;;4.70;3.00;;;;;;;;;;5097011;28;20016;-79
2023/05/03 12:02:38;;;;;;;7.87;2.93;;;;;;;;;;5097431;28;20012;-80
2023/05/03 12:05:06;;;;;;;6.63;2.37;;;;;;;;;;5097364;28;20031;-79
2023/05/03 12:07:32;;;;;;;5.30;2.67;;;;;;;;;;5096302;28;20009;-80
2023/05/03 12:10:00;;;;;;;8.67;2.43;;;;;;;;;;5096019;28;20055;-80
2023/05/03 12:12:26;;;;;;;9.53;3.27;;;;;;;;;;5095345;28;20968;-79
2023/05/03 12:14:59;;;;;;;6.47;2.50;;;;;;;;;;5095213;28;20051;-80
2023/05/03 12:17:38;;;;;;;5.30;2.53;;;;;;;;;;5095762;28;20041;-79
2023/05/03 12:20:17;;;;;;;11.10;3.60;;;;;;;;;;5097377;28;20016;-79
2023/05/03 12:22:43;;;;;;;7.97;3.53;;;;;;;;;;5096769;28;20028;-79
2023/05/03 12:25:10;;;;;;;10.27;3.03;;;;;;;;;;5094023;28;20016;-78
2023/05/03 12:27:36;;;;;;;6.50;2.90;;;;;;;;;;5112971;27;21242;-79
2023/05/03 12:30:02;;;;;;;5.90;2.53;;;;;;;;;;5097716;28;20013;-79
2023/05/03 12:32:28;;;;;;;5.67;2.40;;;;;;;;;;5087946;28;20269;-79
2023/05/03 12:34:57;;;;;;;7.43;3.30;;;;;;;;;;5087089;28;20020;-79
2023/05/03 12:37:23;;;;;;;6.23;2.37;;;;;;;;;;5088880;28;20021;-78
2023/05/03 12:39:50;;;;;;;7.50;2.27;;;;;;;;;;5085018;28;20041;-77
2023/05/03 12:42:18;;;;;;;7.33;2.10;;;;;;;;;;5087736;28;20075;-78
2023/05/03 12:44:47;;;;;;;4.33;2.17;;;;;;;;;;5086348;28;20028;-78
2023/05/03 12:47:16;;;;;;;8.53;2.47;;;;;;;;;;5084473;28;20036;-77
2023/05/03 12:49:42;;;;;;;4.93;2.30;;;;;;;;;;5089017;28;20032;-79
2023/05/03 12:52:10;;;;;;;6.47;2.80;;;;;;;;;;5087513;28;20017;-79
2023/05/03 12:54:40;;;;;;;9.35;2.65;;;;;;;;;;5090624;28;20032;-80
2023/05/03 12:57:08;;;;;;;5.33;2.30;;;;;;;;;;5086784;28;20017;-79
2023/05/03 12:59:35;;;;;;;5.93;2.35;;;;;;;;;;5091361;28;20039;-80
2023/05/03 13:02:01;;;;;;;4.45;1.88;;;;;;;;;;5092632;28;20025;-79
2023/05/03 13:04:29;;;;;;;4.93;1.90;;;;;;;;;;5093567;28;20024;-79
2023/05/03 13:06:58;;;;;;;11.23;2.55;;;;;;;;;;5093217;28;20025;-79
2023/05/03 13:09:24;;;;;;;4.90;2.53;;;;;;;;;;5091336;28;20021;-80
2023/05/03 13:15:02;;;;;;;5.57;2.00;;;;;;;;;;5077494;28;20051;-80
2023/05/03 13:17:29;;;;;;;6.47;2.55;;;;;;;;;;5091917;28;20044;-80
2023/05/03 13:19:55;;;;;;;5.32;1.80;;;;;;;;;;5089822;28;20028;-80
2023/05/03 13:22:21;;;;;;;4.85;1.77;;;;;;;;;;5092855;28;20028;-80
2023/05/03 13:24:48;;;;;;;7.68;2.88;;;;;;;;;;5091853;28;20047;-80
2023/05/03 13:27:14;;;;;;;5.40;1.90;;;;;;;;;;5091012;28;20024;-79
2023/05/03 13:29:41;;;;;;;7.30;1.95;;;;;;;;;;5090877;28;20036;-80
2023/05/03 13:32:08;;;;;;;3.88;2.38;;;;;;;;;;5091028;28;20023;-80
2023/05/03 13:34:53;;;;;;;4.57;1.92;;;;;;;;;;5090701;28;20028;-80
2023/05/03 13:37:19;;;;;;;5.28;2.22;;;;;;;;;;5093303;28;20055;-80
2023/05/03 13:39:45;;;;;;;3.65;1.73;;;;;;;;;;5092580;28;20110;-79
2023/05/03 13:42:11;;;;;;;3.90;1.95;;;;;;;;;;5091213;28;20016;-80
2023/05/03 13:44:38;;;;;;;6.70;2.40;;;;;;;;;;5094326;28;20043;-80
2023/05/03 13:47:04;;;;;;;6.30;2.65;;;;;;;;;;5091788;28;20020;-79
2023/05/03 13:49:30;;;;;;;6.22;2.40;;;;;;;;;;5092216;28;20035;-80
2023/05/03 13:51:56;;;;;;;4.50;1.83;;;;;;;;;;5102119;28;20147;-80
2023/05/03 13:54:23;;;;;;;3.13;1.90;;;;;;;;;;5091753;28;20001;-79
2023/05/03 13:56:49;;;;;;;3.92;2.17;;;;;;;;;;5091927;28;20043;-80
2023/05/03 13:59:15;;;;;;;4.45;1.73;;;;;;;;;;5090104;28;20082;-80
2023/05/03 14:01:44;;;;;;;6.18;2.05;;;;;;;;;;5092527;28;20020;-79
2023/05/03 14:04:10;;;;;;;7.72;2.80;;;;;;;;;;5091710;28;20020;-80
2023/05/03 14:06:36;;;;;;;6.10;1.83;;;;;;;;;;5091736;28;20024;-80
2023/05/03 14:09:02;;;;;;;4.10;2.00;;;;;;;;;;5090904;28;20029;-79
2023/05/03 14:11:30;;;;;;;4.10;1.88;;;;;;;;;;5093446;28;20020;-80
2023/05/03 14:13:56;;;;;;;5.13;1.73;;;;;;;;;;5093497;28;20027;-80
2023/05/03 14:16:25;;;;;;;7.50;1.85;;;;;;;;;;5092697;28;20033;-79
2023/05/03 14:18:52;;;;;;;8.38;2.03;;;;;;;;;;5091194;28;20024;-79
2023/05/03 14:21:18;;;;;;;6.82;2.40;;;;;;;;;;5089859;28;20028;-79
2023/05/03 14:23:44;;;;;;;4.97;2.00;;;;;;;;;;5091159;28;20021;-80
2023/05/03 14:26:11;;;;;;;4.93;2.03;;;;;;;;;;5092117;28;20109;-79
2023/05/03 14:28:37;;;;;;;7.55;2.33;;;;;;;;;;5093990;28;20134;-79
2023/05/03 14:31:06;;;;;;;9.23;2.95;;;;;;;;;;5092412;28;20028;-80
2023/05/03 14:33:33;;;;;;;7.18;2.70;;;;;;;;;;5091651;28;20025;-79
2023/05/03 14:35:59;;;;;;;4.55;2.10;;;;;;;;;;5092647;28;20039;-77
2023/05/03 14:38:25;;;;;;;5.85;1.92;;;;;;;;;;5092212;28;20021;-80
2023/05/03 14:40:52;;;;;;;7.25;2.13;;;;;;;;;;5091728;28;20033;-80
2023/05/03 14:43:18;;;;;;;4.10;1.98;;;;;;;;;;5092688;28;20364;-80